• Join FlightAware (Why Join?)
  • Login
  • US Flag 
04:24PM EDT


 

Airport Tracker/Info


-or-


 

Live Flight TrackerFlight Track Log ✈ CPT8691 ✈ 24-Apr-2013 ✈ PHNL - PHJH / JHM

Flight Track Log - Related Links

Times and Time Zones

All times are in EDT time to prevent confusion due to time zone crossing. See the CPT8691 flight status page for this flight to view local times or setup timezone preferences in your user account.

Time Position Orientation Groundspeed Altitude Reporting Facility
EDT Latitude Longitude Course Direction KTS MPH feet Rate Location/Type
12:59PM 21.3167 -157.8833 155° Southeast 110 127 600  Level Honolulu Center
01:00PM 21.2833 -157.8667 155° Southeast 120 138 1,200 660 Climbing Honolulu Center
01:01PM 21.2667 -157.8500 137° Southeast 120 138 2,000 720 Climbing Honolulu Center
01:02PM 21.2500 -157.8167 118° Southeast 120 138 2,700 660 Climbing Honolulu Center
01:03PM 21.2500 -157.7833 90° East 110 127 3,400 660 Climbing Honolulu Center
01:04PM 21.2333 -157.7500 118° Southeast 120 138 4,100 660 Climbing Honolulu Center
01:05PM 21.2333 -157.7167 90° East 120 138 4,800 600 Climbing Honolulu Center
01:06PM 21.2333 -157.6833 90° East 120 138 5,300 600 Climbing Honolulu Center
01:07PM 21.2167 -157.6500 118° Southeast 130 150 6,000 600 Climbing Honolulu Center
01:08PM 21.2167 -157.6000 90° East 130 150 6,600 480 Climbing Honolulu Center
01:09PM 21.2000 -157.5667 118° Southeast 140 161 7,000 180 Climbing Honolulu Center
01:10PM 21.2000 -157.5167 90° East 150 173 7,000  Level Honolulu Center
01:11PM 21.1833 -157.4833 118° Southeast 150 173 7,000  Level Honolulu Center
01:12PM 21.1833 -157.4333 90° East 160 184 7,000  Level Honolulu Center
01:13PM 21.1667 -157.3833 110° East 160 184 7,000  Level Honolulu Center
01:14PM 21.1667 -157.3333 90° East 160 184 7,000  Level Honolulu Center
01:16PM 21.1500 -157.2500 102° East 150 173 7,000  Level Honolulu Center
01:17PM 21.1333 -157.2000 110° East 160 184 7,000  Level Honolulu Center
01:18PM 21.1333 -157.1500 90° East 160 184 7,000 -120 Level Honolulu Center
01:19PM 21.1167 -157.1167 118° Southeast 150 173 6,800 -300 Descending Honolulu Center
01:20PM 21.1000 -157.0667 110° East 160 184 6,400 -420 Descending Honolulu Center
01:21PM 21.0833 -157.0333 118° Southeast 170 196 6,000 -420 Descending Honolulu Center
01:22PM 21.0667 -156.9833 110° East 170 196 5,600 -480 Descending Honolulu Center
01:23PM 21.0500 -156.9333 110° East 170 196 5,100 -480 Descending Honolulu Center
01:24PM 21.0333 -156.8833 110° East 170 196 4,700 -420 Descending Honolulu Center
01:25PM 21.0000 -156.8500 137° Southeast 170 196 4,300 -480 Descending Honolulu Center
01:26PM 20.9833 -156.8000 110° East 160 184 3,800 -660 Descending Honolulu Center
01:27PM 20.9500 -156.7667 137° Southeast 170 196 3,000 -900 Descending Honolulu Center
01:28PM 20.9333 -156.7333 118° Southeast 150 173 2,100 -840 Descending Honolulu Center
01:29PM 20.9167 -156.6833 110° East 150 173 1,400 -720 Descending Honolulu Center